sensor_id;sensor_type;location;lat;lon;timestamp;pressure;altitude;pressure_sealevel;temperature;humidity
68986;BME280;56035;37.534;-122.308;2023-03-01T00:01:59;100737.53;;;11.21;100.00
68986;BME280;56035;37.534;-122.308;2023-03-01T00:04:25;100743.69;;;10.83;100.00
68986;BME280;56035;37.534;-122.308;2023-03-01T00:06:53;100734.28;;;10.55;100.00
68986;BME280;56035;37.534;-122.308;2023-03-01T00:09:20;100730.25;;;10.46;100.00
68986;BME280;56035;37.534;-122.308;2023-03-01T00:11:46;100725.72;;;10.28;100.00
68986;BME280;56035;37.534;-122.308;2023-03-01T00:14:12;100725.22;;;10.43;100.00
68986;BME280;56035;37.534;-122.308;2023-03-01T00:16:41;100731.22;;;10.40;100.00
68986;BME280;56035;37.534;-122.308;2023-03-01T00:19:11;100713.13;;;10.21;100.00
68986;BME280;56035;37.534;-122.308;2023-03-01T00:21:38;100725.81;;;10.10;100.00
68986;BME280;56035;37.534;-122.308;2023-03-01T00:24:04;100707.63;;;10.21;100.00
68986;BME280;56035;37.534;-122.308;2023-03-01T00:26:31;100705.00;;;10.02;100.00
68986;BME280;56035;37.534;-122.308;2023-03-01T00:28:58;100705.72;;;9.98;100.00
68986;BME280;56035;37.534;-122.308;2023-03-01T00:31:27;100715.28;;;9.83;100.00
68986;BME280;56035;37.534;-122.308;2023-03-01T00:34:00;100723.53;;;9.72;100.00
68986;BME280;56035;37.534;-122.308;2023-03-01T00:36:30;100715.28;;;9.83;100.00
68986;BME280;56035;37.534;-122.308;2023-03-01T00:38:56;100707.28;;;9.82;100.00
68986;BME280;56035;37.534;-122.308;2023-03-01T00:41:23;100719.22;;;9.76;100.00
68986;BME280;56035;37.534;-122.308;2023-03-01T00:43:52;100710.00;;;9.58;100.00
68986;BME280;56035;37.534;-122.308;2023-03-01T00:46:21;100712.13;;;9.56;100.00
68986;BME280;56035;37.534;-122.308;2023-03-01T00:48:48;100705.19;;;9.42;100.00
68986;BME280;56035;37.534;-122.308;2023-03-01T00:51:23;100703.38;;;9.36;100.00
68986;BME280;56035;37.534;-122.308;2023-03-01T00:53:51;100705.97;;;9.31;100.00
68986;BME280;56035;37.534;-122.308;2023-03-01T00:56:18;100698.56;;;9.20;100.00
68986;BME280;56035;37.534;-122.308;2023-03-01T00:58:44;100694.47;;;9.10;100.00
68986;BME280;56035;37.534;-122.308;2023-03-01T01:01:20;100693.63;;;9.10;100.00
68986;BME280;56035;37.534;-122.308;2023-03-01T01:04:01;100688.81;;;9.05;100.00
68986;BME280;56035;37.534;-122.308;2023-03-01T01:06:31;100697.31;;;9.04;100.00
68986;BME280;56035;37.534;-122.308;2023-03-01T01:09:00;100693.25;;;9.06;100.00
68986;BME280;56035;37.534;-122.308;2023-03-01T01:11:28;100704.19;;;8.95;100.00
68986;BME280;56035;37.534;-122.308;2023-03-01T01:13:55;100712.22;;;8.96;100.00
68986;BME280;56035;37.534;-122.308;2023-03-01T01:16:24;100705.03;;;8.95;100.00
68986;BME280;56035;37.534;-122.308;2023-03-01T01:18:51;100710.84;;;8.87;100.00
68986;BME280;56035;37.534;-122.308;2023-03-01T01:21:21;100717.50;;;8.79;100.00
68986;BME280;56035;37.534;-122.308;2023-03-01T01:23:48;100715.22;;;8.76;100.00
68986;BME280;56035;37.534;-122.308;2023-03-01T01:28:43;100703.19;;;8.59;100.00
68986;BME280;56035;37.534;-122.308;2023-03-01T01:31:09;100690.63;;;8.51;100.00
68986;BME280;56035;37.534;-122.308;2023-03-01T01:33:36;100700.59;;;8.46;100.00
68986;BME280;56035;37.534;-122.308;2023-03-01T01:36:04;100703.22;;;8.40;100.00
68986;BME280;56035;37.534;-122.308;2023-03-01T01:38:31;100688.16;;;8.43;100.00
68986;BME280;56035;37.534;-122.308;2023-03-01T01:40:58;100691.88;;;8.30;100.00
68986;BME280;56035;37.534;-122.308;2023-03-01T01:43:29;100687.84;;;8.33;100.00
68986;BME280;56035;37.534;-122.308;2023-03-01T01:46:01;100697.16;;;8.32;100.00
68986;BME280;56035;37.534;-122.308;2023-03-01T01:48:36;100697.88;;;8.20;100.00
68986;BME280;56035;37.534;-122.308;2023-03-01T01:51:11;100701.72;;;8.19;100.00
68986;BME280;56035;37.534;-122.308;2023-03-01T01:53:40;100693.94;;;8.16;100.00
68986;BME280;56035;37.534;-122.308;2023-03-01T01:56:12;100704.06;;;8.16;100.00
68986;BME280;56035;37.534;-122.308;2023-03-01T01:58:39;100707.44;;;8.18;100.00
68986;BME280;56035;37.534;-122.308;2023-03-01T02:01:07;100704.69;;;8.18;100.00
68986;BME280;56035;37.534;-122.308;2023-03-01T02:03:35;100714.22;;;8.15;100.00
68986;BME280;56035;37.534;-122.308;2023-03-01T02:06:37;100704.47;;;8.01;100.00
68986;BME280;56035;37.534;-122.308;2023-03-01T02:09:10;100702.56;;;8.02;100.00
68986;BME280;56035;37.534;-122.308;2023-03-01T02:11:38;100689.22;;;8.05;100.00
68986;BME280;56035;37.534;-122.308;2023-03-01T02:14:04;100677.63;;;8.03;100.00
68986;BME280;56035;37.534;-122.308;2023-03-01T02:16:31;100691.19;;;7.98;100.00
68986;BME280;56035;37.534;-122.308;2023-03-01T02:18:58;100679.59;;;7.96;100.00
68986;BME280;56035;37.534;-122.308;2023-03-01T02:21:38;100669.78;;;7.88;100.00
68986;BME280;56035;37.534;-122.308;2023-03-01T02:25:21;100673.09;;;7.90;100.00
68986;BME280;56035;37.534;-122.308;2023-03-01T02:27:14;100676.53;;;7.86;100.00
68986;BME280;56035;37.534;-122.308;2023-03-01T02:29:41;100682.47;;;7.83;100.00
68986;BME280;56035;37.534;-122.308;2023-03-01T02:32:11;100669.41;;;7.78;100.00
68986;BME280;56035;37.534;-122.308;2023-03-01T02:34:38;100672.84;;;7.73;100.00
68986;BME280;56035;37.534;-122.308;2023-03-01T02:37:10;100674.97;;;7.71;100.00
68986;BME280;56035;37.534;-122.308;2023-03-01T02:39:41;100684.72;;;7.67;100.00
68986;BME280;56035;37.534;-122.308;2023-03-01T02:42:15;100695.31;;;7.64;100.00
68986;BME280;56035;37.534;-122.308;2023-03-01T02:44:42;100679.53;;;7.59;100.00
68986;BME280;56035;37.534;-122.308;2023-03-01T02:47:08;100692.16;;;7.60;100.00
68986;BME280;56035;37.534;-122.308;2023-03-01T02:49:36;100688.22;;;7.56;100.00
68986;BME280;56035;37.534;-122.308;2023-03-01T02:52:22;100690.78;;;7.51;100.00
68986;BME280;56035;37.534;-122.308;2023-03-01T02:55:11;100673.34;;;7.39;100.00
68986;BME280;56035;37.534;-122.308;2023-03-01T02:57:41;100671.94;;;7.36;100.00
68986;BME280;56035;37.534;-122.308;2023-03-01T03:00:12;100669.50;;;7.21;100.00
68986;BME280;56035;37.534;-122.308;2023-03-01T03:02:46;100671.91;;;7.11;100.00
68986;BME280;56035;37.534;-122.308;2023-03-01T03:05:15;100677.19;;;7.06;100.00
68986;BME280;56035;37.534;-122.308;2023-03-01T03:07:44;100665.22;;;7.00;100.00
68986;BME280;56035;37.534;-122.308;2023-03-01T03:10:15;100671.78;;;6.93;100.00
68986;BME280;56035;37.534;-122.308;2023-03-01T03:12:42;100668.91;;;6.88;100.00
68986;BME280;56035;37.534;-122.308;2023-03-01T03:15:09;100676.91;;;6.83;100.00
68986;BME280;56035;37.534;-122.308;2023-03-01T03:17:40;100674.25;;;6.69;100.00
68986;BME280;56035;37.534;-122.308;2023-03-01T03:20:08;100670.69;;;6.69;100.00
68986;BME280;56035;37.534;-122.308;2023-03-01T03:22:38;100673.81;;;6.72;100.00
68986;BME280;56035;37.534;-122.308;2023-03-01T03:25:06;100678.06;;;6.68;100.00
68986;BME280;56035;37.534;-122.308;2023-03-01T03:27:40;100675.53;;;6.67;100.00
68986;BME280;56035;37.534;-122.308;2023-03-01T03:30:09;100669.47;;;6.58;100.00
68986;BME280;56035;37.534;-122.308;2023-03-01T03:32:42;100680.06;;;6.48;100.00
68986;BME280;56035;37.534;-122.308;2023-03-01T03:35:34;100689.13;;;6.42;100.00
68986;BME280;56035;37.534;-122.308;2023-03-01T03:38:05;100688.69;;;6.45;100.00
68986;BME280;56035;37.534;-122.308;2023-03-01T03:40:42;100684.72;;;6.34;100.00
68986;BME280;56035;37.534;-122.308;2023-03-01T03:43:15;100681.56;;;6.30;100.00
68986;BME280;56035;37.534;-122.308;2023-03-01T03:45:44;100674.03;;;6.26;100.00
68986;BME280;56035;37.534;-122.308;2023-03-01T03:48:11;100670.25;;;6.20;100.00
68986;BME280;56035;37.534;-122.308;2023-03-01T03:50:39;100677.84;;;6.18;100.00
68986;BME280;56035;37.534;-122.308;2023-03-01T03:53:12;100678.88;;;6.17;100.00
68986;BME280;56035;37.534;-122.308;2023-03-01T03:55:38;100688.16;;;6.16;100.00
68986;BME280;56035;37.534;-122.308;2023-03-01T03:58:08;100691.97;;;6.15;100.00
68986;BME280;56035;37.534;-122.308;2023-03-01T04:00:41;100690.50;;;6.13;100.00
68986;BME280;56035;37.534;-122.308;2023-03-01T04:03:08;100696.59;;;6.08;100.00
68986;BME280;56035;37.534;-122.308;2023-03-01T04:05:36;100690.28;;;6.01;100.00
68986;BME280;56035;37.534;-122.308;2023-03-01T04:08:02;100703.97;;;6.01;100.00
68986;BME280;56035;37.534;-122.308;2023-03-01T04:10:30;100705.03;;;5.86;100.00
68986;BME280;56035;37.534;-122.308;2023-03-01T04:12:57;100715.31;;;5.84;100.00
68986;BME280;56035;37.534;-122.308;2023-03-01T04:15:25;100725.84;;;5.74;100.00
68986;BME280;56035;37.534;-122.308;2023-03-01T04:17:54;100728.59;;;5.68;100.00
68986;BME280;56035;37.534;-122.308;2023-03-01T04:20:24;100729.66;;;5.67;100.00
68986;BME280;56035;37.534;-122.308;2023-03-01T04:22:52;100729.44;;;5.55;100.00
68986;BME280;56035;37.534;-122.308;2023-03-01T04:25:19;100715.97;;;5.47;100.00
68986;BME280;56035;37.534;-122.308;2023-03-01T04:27:45;100717.25;;;5.44;100.00
68986;BME280;56035;37.534;-122.308;2023-03-01T04:30:12;100699.59;;;5.40;100.00
68986;BME280;56035;37.534;-122.308;2023-03-01T04:32:38;100706.50;;;5.36;100.00
68986;BME280;56035;37.534;-122.308;2023-03-01T04:35:04;100699.16;;;5.36;100.00
68986;BME280;56035;37.534;-122.308;2023-03-01T04:37:31;100697.88;;;5.32;100.00
68986;BME280;56035;37.534;-122.308;2023-03-01T04:39:57;100701.25;;;5.34;100.00
68986;BME280;56035;37.534;-122.308;2023-03-01T04:42:23;100706.72;;;5.34;100.00
68986;BME280;56035;37.534;-122.308;2023-03-01T04:44:49;100715.56;;;5.30;100.00
68986;BME280;56035;37.534;-122.308;2023-03-01T04:47:19;100713.44;;;5.32;100.00
68986;BME280;56035;37.534;-122.308;2023-03-01T04:49:45;100718.06;;;5.31;100.00
68986;BME280;56035;37.534;-122.308;2023-03-01T04:52:11;100730.06;;;5.30;100.00
68986;BME280;56035;37.534;-122.308;2023-03-01T04:54:37;100728.16;;;5.31;100.00
68986;BME280;56035;37.534;-122.308;2023-03-01T04:57:03;100723.75;;;5.30;100.00
68986;BME280;56035;37.534;-122.308;2023-03-01T04:59:30;100710.09;;;5.30;100.00
68986;BME280;56035;37.534;-122.308;2023-03-01T05:01:56;100719.31;;;5.29;100.00
68986;BME280;56035;37.534;-122.308;2023-03-01T05:04:24;100715.31;;;5.25;100.00
68986;BME280;56035;37.534;-122.308;2023-03-01T05:06:50;100720.38;;;5.28;100.00
68986;BME280;56035;37.534;-122.308;2023-03-01T05:09:16;100711.78;;;5.31;100.00
68986;BME280;56035;37.534;-122.308;2023-03-01T05:11:43;100700.00;;;5.30;100.00
68986;BME280;56035;37.534;-122.308;2023-03-01T05:14:09;100706.06;;;5.32;100.00
68986;BME280;56035;37.534;-122.308;2023-03-01T05:16:36;100706.06;;;5.32;100.00
68986;BME280;56035;37.534;-122.308;2023-03-01T05:19:03;100700.00;;;5.30;100.00
68986;BME280;56035;37.534;-122.308;2023-03-01T05:21:38;100702.50;;;5.25;100.00
68986;BME280;56035;37.534;-122.308;2023-03-01T05:24:24;100707.13;;;5.25;100.00
68986;BME280;56035;37.534;-122.308;2023-03-01T05:26:50;100705.25;;;5.25;100.00
68986;BME280;56035;37.534;-122.308;2023-03-01T05:29:18;100699.34;;;5.22;100.00
68986;BME280;56035;37.534;-122.308;2023-03-01T05:31:57;100717.63;;;5.21;100.00
68986;BME280;56035;37.534;-122.308;2023-03-01T05:34:25;100714.69;;;5.16;100.00
68986;BME280;56035;37.534;-122.308;2023-03-01T05:36:53;100713.22;;;5.13;100.00
68986;BME280;56035;37.534;-122.308;2023-03-01T05:39:24;100715.09;;;5.13;100.00
68986;BME280;56035;37.534;-122.308;2023-03-01T05:41:59;100717.63;;;5.14;100.00
68986;BME280;56035;37.534;-122.308;2023-03-01T05:44:26;100716.97;;;5.12;100.00
68986;BME280;56035;37.534;-122.308;2023-03-01T05:46:52;100706.28;;;5.11;100.00
68986;BME280;56035;37.534;-122.308;2023-03-01T05:49:18;100713.81;;;5.09;100.00
68986;BME280;56035;37.534;-122.308;2023-03-01T05:51:49;100707.94;;;5.05;100.00
68986;BME280;56035;37.534;-122.308;2023-03-01T05:54:16;100701.00;;;5.03;100.00
68986;BME280;56035;37.534;-122.308;2023-03-01T05:56:43;100699.97;;;5.04;100.00
68986;BME280;56035;37.534;-122.308;2023-03-01T05:59:10;100692.38;;;4.99;100.00
68986;BME280;56035;37.534;-122.308;2023-03-01T06:01:37;100681.69;;;4.98;100.00
68986;BME280;56035;37.534;-122.308;2023-03-01T06:04:03;100682.91;;;4.88;100.00
68986;BME280;56035;37.534;-122.308;2023-03-01T06:06:33;100683.97;;;4.87;100.00
68986;BME280;56035;37.534;-122.308;2023-03-01T06:09:00;100653.31;;;4.85;100.00
68986;BME280;56035;37.534;-122.308;2023-03-01T06:11:26;100643.44;;;4.84;100.00
68986;BME280;56035;37.534;-122.308;2023-03-01T06:13:52;100632.72;;;4.83;100.00
68986;BME280;56035;37.534;-122.308;2023-03-01T06:16:18;100638.41;;;4.81;100.00
68986;BME280;56035;37.534;-122.308;2023-03-01T06:18:44;100638.16;;;4.76;100.00
68986;BME280;56035;37.534;-122.308;2023-03-01T06:21:11;100660.41;;;4.73;100.00
68986;BME280;56035;37.534;-122.308;2023-03-01T06:23:37;100666.53;;;4.75;100.00
68986;BME280;56035;37.534;-122.308;2023-03-01T06:26:07;100661.06;;;4.75;100.00
68986;BME280;56035;37.534;-122.308;2023-03-01T06:28:35;100642.78;;;4.76;100.00
68986;BME280;56035;37.534;-122.308;2023-03-01T06:31:01;100647.41;;;4.75;100.00
68986;BME280;56035;37.534;-122.308;2023-03-01T06:33:28;100636.50;;;4.75;100.00
68986;BME280;56035;37.534;-122.308;2023-03-01T06:35:55;100642.16;;;4.80;100.00
68986;BME280;56035;37.534;-122.308;2023-03-01T06:38:23;100640.28;;;4.81;100.00
68986;BME280;56035;37.534;-122.308;2023-03-01T06:40:53;100658.13;;;4.83;100.00
68986;BME280;56035;37.534;-122.308;2023-03-01T06:43:21;100660.44;;;4.86;100.00
68986;BME280;56035;37.534;-122.308;2023-03-01T06:45:47;100664.66;;;4.89;100.00
68986;BME280;56035;37.534;-122.308;2023-03-01T06:48:13;100663.41;;;4.91;100.00
68986;BME280;56035;37.534;-122.308;2023-03-01T06:50:39;100653.53;;;4.90;100.00
68986;BME280;56035;37.534;-122.308;2023-03-01T06:53:06;100649.09;;;4.89;100.00
68986;BME280;56035;37.534;-122.308;2023-03-01T06:55:32;100654.56;;;4.83;100.00
68986;BME280;56035;37.534;-122.308;2023-03-01T06:58:00;100650.56;;;4.79;100.00
68986;BME280;56035;37.534;-122.308;2023-03-01T07:00:27;100642.38;;;4.72;100.00
68986;BME280;56035;37.534;-122.308;2023-03-01T07:02:53;100641.28;;;4.66;100.00
68986;BME280;56035;37.534;-122.308;2023-03-01T07:05:20;100644.00;;;4.60;100.00
68986;BME280;56035;37.534;-122.308;2023-03-01T07:07:46;100641.50;;;4.58;100.00
68986;BME280;56035;37.534;-122.308;2023-03-01T07:10:12;100650.31;;;4.60;100.00
68986;BME280;56035;37.534;-122.308;2023-03-01T07:12:38;100666.88;;;4.59;100.00
68986;BME280;56035;37.534;-122.308;2023-03-01T07:15:07;100664.16;;;4.59;100.00
68986;BME280;56035;37.534;-122.308;2023-03-01T07:17:35;100659.53;;;4.53;100.00
68986;BME280;56035;37.534;-122.308;2023-03-01T07:20:01;100661.41;;;4.45;100.00
68986;BME280;56035;37.534;-122.308;2023-03-01T07:22:27;100661.56;;;4.37;100.00
68986;BME280;56035;37.534;-122.308;2023-03-01T07:24:54;100652.13;;;4.40;100.00
68986;BME280;56035;37.534;-122.308;2023-03-01T07:27:20;100648.97;;;4.36;100.00
68986;BME280;56035;37.534;-122.308;2023-03-01T07:29:46;100647.28;;;4.29;100.00
68986;BME280;56035;37.534;-122.308;2023-03-01T07:32:12;100642.41;;;4.24;100.00
68986;BME280;56035;37.534;-122.308;2023-03-01T07:34:38;100639.47;;;4.19;100.00
68986;BME280;56035;37.534;-122.308;2023-03-01T07:37:04;100643.41;;;4.10;100.00
68986;BME280;56035;37.534;-122.308;2023-03-01T07:39:31;100632.66;;;4.02;100.00
68986;BME280;56035;37.534;-122.308;2023-03-01T07:41:57;100629.06;;;3.94;100.00
68986;BME280;56035;37.534;-122.308;2023-03-01T07:44:23;100636.56;;;3.86;100.00
68986;BME280;56035;37.534;-122.308;2023-03-01T07:46:49;100654.56;;;3.80;100.00
68986;BME280;56035;37.534;-122.308;2023-03-01T07:49:18;100680.13;;;3.79;100.00
68986;BME280;56035;37.534;-122.308;2023-03-01T07:51:44;100685.63;;;3.86;100.00
68986;BME280;56035;37.534;-122.308;2023-03-01T07:54:10;100681.63;;;3.82;100.00
68986;BME280;56035;37.534;-122.308;2023-03-01T07:56:36;100667.09;;;3.74;100.00
68986;BME280;56035;37.534;-122.308;2023-03-01T07:59:02;100667.09;;;3.74;100.00
68986;BME280;56035;37.534;-122.308;2023-03-01T08:01:28;100668.31;;;3.65;100.00
68986;BME280;56035;37.534;-122.308;2023-03-01T08:03:55;100651.06;;;3.58;100.00
68986;BME280;56035;37.534;-122.308;2023-03-01T08:06:21;100661.13;;;3.58;100.00
68986;BME280;56035;37.534;-122.308;2023-03-01T08:08:47;100647.66;;;3.49;100.00
68986;BME280;56035;37.534;-122.308;2023-03-01T08:11:14;100657.91;;;3.47;100.00
68986;BME280;56035;37.534;-122.308;2023-03-01T08:13:40;100661.47;;;3.48;100.00
68986;BME280;56035;37.534;-122.308;2023-03-01T08:16:10;100661.81;;;3.38;100.00
68986;BME280;56035;37.534;-122.308;2023-03-01T08:18:36;100667.28;;;3.38;100.00
68986;BME280;56035;37.534;-122.308;2023-03-01T08:21:08;100662.22;;;3.35;100.00
68986;BME280;56035;37.534;-122.308;2023-03-01T08:23:35;100673.50;;;3.32;100.00
68986;BME280;56035;37.534;-122.308;2023-03-01T08:26:13;100669.94;;;3.32;100.00
68986;BME280;56035;37.534;-122.308;2023-03-01T08:28:40;100675.38;;;3.32;100.00
68986;BME280;56035;37.534;-122.308;2023-03-01T08:33:40;100673.00;;;3.22;100.00
68986;BME280;56035;37.534;-122.308;2023-03-01T08:36:06;100668.34;;;3.16;100.00
68986;BME280;56035;37.534;-122.308;2023-03-01T08:38:34;100670.81;;;3.11;100.00
68986;BME280;56035;37.534;-122.308;2023-03-01T08:41:02;100677.03;;;3.04;100.00
68986;BME280;56035;37.534;-122.308;2023-03-01T08:43:29;100666.47;;;2.95;100.00
68986;BME280;56035;37.534;-122.308;2023-03-01T08:45:55;100666.03;;;2.91;100.00
68986;BME280;56035;37.534;-122.308;2023-03-01T08:48:21;100656.31;;;2.82;100.00
68986;BME280;56035;37.534;-122.308;2023-03-01T08:50:48;100653.31;;;2.77;100.00
68986;BME280;56035;37.534;-122.308;2023-03-01T08:53:14;100645.53;;;2.74;100.00
68986;BME280;56035;37.534;-122.308;2023-03-01T08:55:40;100658.75;;;2.77;100.00
68986;BME280;56035;37.534;-122.308;2023-03-01T08:58:06;100655.41;;;2.75;100.00
68986;BME280;56035;37.534;-122.308;2023-03-01T09:00:32;100660.19;;;2.73;100.00
68986;BME280;56035;37.534;-122.308;2023-03-01T09:03:00;100664.97;;;2.71;100.00
68986;BME280;56035;37.534;-122.308;2023-03-01T09:05:27;100666.66;;;2.72;100.00
68986;BME280;56035;37.534;-122.308;2023-03-01T09:07:53;100667.94;;;2.76;100.00
68986;BME280;56035;37.534;-122.308;2023-03-01T09:10:19;100679.50;;;2.78;100.00
68986;BME280;56035;37.534;-122.308;2023-03-01T09:12:45;100669.63;;;2.77;100.00
68986;BME280;56035;37.534;-122.308;2023-03-01T09:15:11;100663.75;;;2.73;100.00
68986;BME280;56035;37.534;-122.308;2023-03-01T09:17:38;100661.59;;;2.69;100.00
68986;BME280;56035;37.534;-122.308;2023-03-01T09:20:04;100662.00;;;2.66;100.00
68986;BME280;56035;37.534;-122.308;2023-03-01T09:22:33;100666.78;;;2.64;100.00
68986;BME280;56035;37.534;-122.308;2023-03-01T09:25:00;100657.97;;;2.62;100.00
68986;BME280;56035;37.534;-122.308;2023-03-01T09:27:27;100653.94;;;2.57;100.00
68986;BME280;56035;37.534;-122.308;2023-03-01T09:29:53;100654.38;;;2.61;100.00
68986;BME280;56035;37.534;-122.308;2023-03-01T09:32:22;100659.00;;;2.61;100.00
68986;BME280;56035;37.534;-122.308;2023-03-01T09:34:48;100661.31;;;2.64;100.00
68986;BME280;56035;37.534;-122.308;2023-03-01T09:37:26;100662.81;;;2.66;100.00
68986;BME280;56035;37.534;-122.308;2023-03-01T09:39:52;100657.78;;;2.63;100.00
68986;BME280;56035;37.534;-122.308;2023-03-01T09:42:19;100659.00;;;2.61;100.00
68986;BME280;56035;37.534;-122.308;2023-03-01T09:45:04;100662.38;;;2.63;100.00
68986;BME280;56035;37.534;-122.308;2023-03-01T09:47:34;100656.72;;;2.64;100.00
68986;BME280;56035;37.534;-122.308;2023-03-01T09:50:14;100653.75;;;2.59;100.00
68986;BME280;56035;37.534;-122.308;2023-03-01T09:52:54;100656.66;;;2.57;100.00
68986;BME280;56035;37.534;-122.308;2023-03-01T09:55:31;100649.72;;;2.55;100.00
68986;BME280;56035;37.534;-122.308;2023-03-01T10:00:49;100656.06;;;2.41;100.00
68986;BME280;56035;37.534;-122.308;2023-03-01T10:03:17;100642.66;;;2.39;100.00
68986;BME280;56035;37.534;-122.308;2023-03-01T10:08:57;100637.22;;;2.39;100.00
68986;BME280;56035;37.534;-122.308;2023-03-01T10:11:28;100627.75;;;2.35;100.00
68986;BME280;56035;37.534;-122.308;2023-03-01T10:14:05;100634.03;;;2.36;100.00
68986;BME280;56035;37.534;-122.308;2023-03-01T10:19:17;100647.06;;;2.40;100.00
68986;BME280;56035;37.534;-122.308;2023-03-01T10:21:47;100649.00;;;2.46;100.00
68986;BME280;56035;37.534;-122.308;2023-03-01T10:24:16;100641.09;;;2.51;100.00
68986;BME280;56035;37.534;-122.308;2023-03-01T10:26:56;100636.66;;;2.65;100.00
68986;BME280;56035;37.534;-122.308;2023-03-01T10:29:31;100637.69;;;2.64;100.00
68986;BME280;56035;37.534;-122.308;2023-03-01T10:32:01;100639.69;;;2.77;100.00
68986;BME280;56035;37.534;-122.308;2023-03-01T10:34:34;100638.59;;;2.71;100.00
68986;BME280;56035;37.534;-122.308;2023-03-01T10:37:15;100631.09;;;2.73;100.00
68986;BME280;56035;37.534;-122.308;2023-03-01T10:40:08;100622.09;;;2.73;100.00
68986;BME280;56035;37.534;-122.308;2023-03-01T10:42:40;100623.59;;;2.75;100.00
68986;BME280;56035;37.534;-122.308;2023-03-01T10:50:38;100626.81;;;2.64;100.00
68986;BME280;56035;37.534;-122.308;2023-03-01T10:55:57;100615.22;;;2.77;100.00
68986;BME280;56035;37.534;-122.308;2023-03-01T10:58:24;100612.78;;;2.82;100.00
68986;BME280;56035;37.534;-122.308;2023-03-01T11:00:56;100603.06;;;2.73;100.00
68986;BME280;56035;37.534;-122.308;2023-03-01T11:03:31;100603.44;;;2.70;100.00
68986;BME280;56035;37.534;-122.308;2023-03-01T11:06:04;100603.59;;;2.62;100.00
68986;BME280;56035;37.534;-122.308;2023-03-01T11:08:41;100616.66;;;2.73;100.00
68986;BME280;56035;37.534;-122.308;2023-03-01T11:16:48;100604.66;;;2.67;100.00
68986;BME280;56035;37.534;-122.308;2023-03-01T11:19:19;100610.03;;;2.61;100.00
68986;BME280;56035;37.534;-122.308;2023-03-01T11:22:02;100614.38;;;2.55;100.00
68986;BME280;56035;37.534;-122.308;2023-03-01T11:24:51;100605.75;;;2.51;100.00
68986;BME280;56035;37.534;-122.308;2023-03-01T11:27:54;100604.22;;;2.42;100.00
68986;BME280;56035;37.534;-122.308;2023-03-01T11:30:39;100600.63;;;2.42;100.00
68986;BME280;56035;37.534;-122.308;2023-03-01T11:36:05;100597.44;;;2.38;100.00
68986;BME280;56035;37.534;-122.308;2023-03-01T11:38:35;100594.81;;;2.45;100.00
68986;BME280;56035;37.534;-122.308;2023-03-01T11:41:30;100600.84;;;2.40;100.00
68986;BME280;56035;37.534;-122.308;2023-03-01T11:44:16;100602.66;;;2.33;100.00
68986;BME280;56035;37.534;-122.308;2023-03-01T11:51:58;100603.06;;;2.15;100.00
68986;BME280;56035;37.534;-122.308;2023-03-01T12:08:36;100624.53;;;2.10;100.00
68986;BME280;56035;37.534;-122.308;2023-03-01T12:11:24;100636.13;;;2.19;100.00
68986;BME280;56035;37.534;-122.308;2023-03-01T12:14:23;100634.03;;;2.36;100.00
68986;BME280;56035;37.534;-122.308;2023-03-01T12:22:51;100654.69;;;2.51;100.00
68986;BME280;56035;37.534;-122.308;2023-03-01T12:28:26;100690.94;;;2.37;100.00
68986;BME280;56035;37.534;-122.308;2023-03-01T12:33:52;100678.63;;;2.41;100.00
68986;BME280;56035;37.534;-122.308;2023-03-01T12:45:05;100699.59;;;2.26;100.00
68986;BME280;56035;37.534;-122.308;2023-03-01T12:50:26;100707.91;;;2.24;100.00
68986;BME280;56035;37.534;-122.308;2023-03-01T12:52:57;100709.44;;;2.27;100.00
68986;BME280;56035;37.534;-122.308;2023-03-01T12:55:34;100712.41;;;2.32;100.00
68986;BME280;56035;37.534;-122.308;2023-03-01T13:11:21;100713.19;;;2.11;100.00
68986;BME280;56035;37.534;-122.308;2023-03-01T13:13:48;100718.53;;;2.04;100.00
68986;BME280;56035;37.534;-122.308;2023-03-01T13:16:40;100717.59;;;1.97;100.00
68986;BME280;56035;37.534;-122.308;2023-03-01T13:19:19;100720.00;;;1.92;100.00
68986;BME280;56035;37.534;-122.308;2023-03-01T13:21:47;100729.19;;;1.91;100.00
68986;BME280;56035;37.534;-122.308;2023-03-01T13:27:22;100765.19;;;1.93;100.00
68986;BME280;56035;37.534;-122.308;2023-03-01T13:29:59;100770.53;;;1.86;100.00
68986;BME280;56035;37.534;-122.308;2023-03-01T13:32:31;100773.25;;;1.86;100.00
68986;BME280;56035;37.534;-122.308;2023-03-01T13:37:45;100790.53;;;1.85;100.00
68986;BME280;56035;37.534;-122.308;2023-03-01T13:42:46;100799.38;;;1.87;100.00
68986;BME280;56035;37.534;-122.308;2023-03-01T13:45:23;100802.56;;;1.91;100.00
68986;BME280;56035;37.534;-122.308;2023-03-01T13:48:27;100812.22;;;2.08;100.00
68986;BME280;56035;37.534;-122.308;2023-03-01T13:51:14;100811.59;;;2.06;100.00
68986;BME280;56035;37.534;-122.308;2023-03-01T13:53:45;100814.84;;;2.02;100.00
68986;BME280;56035;37.534;-122.308;2023-03-01T13:56:21;100815.41;;;1.97;100.00
68986;BME280;56035;37.534;-122.308;2023-03-01T13:59:02;100820.13;;;2.03;100.00
68986;BME280;56035;37.534;-122.308;2023-03-01T14:01:35;100826.91;;;1.99;100.00
68986;BME280;56035;37.534;-122.308;2023-03-01T14:04:03;100836.78;;;2.00;100.00
68986;BME280;56035;37.534;-122.308;2023-03-01T14:06:32;100833.03;;;2.01;100.00
68986;BME280;56035;37.534;-122.308;2023-03-01T14:09:29;100842.00;;;1.87;100.00
68986;BME280;56035;37.534;-122.308;2023-03-01T14:12:10;100853.72;;;1.87;100.00